sensor_id;sensor_type;location;lat;lon;timestamp;temperature;humidity
69225;DHT22;56333;51.306;17.056;2022-12-18T00:00:10;-3.95;83.90
69225;DHT22;56333;51.306;17.056;2022-12-18T00:02:02;-3.95;83.32
69225;DHT22;56333;51.306;17.056;2022-12-18T00:03:31;-3.96;83.38
69225;DHT22;56333;51.306;17.056;2022-12-18T00:05:00;-3.95;83.47
69225;DHT22;56333;51.306;17.056;2022-12-18T00:06:30;-3.98;82.93
69225;DHT22;56333;51.306;17.056;2022-12-18T00:08:00;-3.97;82.95
69225;DHT22;56333;51.306;17.056;2022-12-18T00:09:29;-3.91;82.85
69225;DHT22;56333;51.306;17.056;2022-12-18T00:11:04;-3.96;82.60
69225;DHT22;56333;51.306;17.056;2022-12-18T00:12:34;-3.98;82.50
69225;DHT22;56333;51.306;17.056;2022-12-18T00:14:02;-4.03;82.85
69225;DHT22;56333;51.306;17.056;2022-12-18T00:15:31;-4.09;83.07
69225;DHT22;56333;51.306;17.056;2022-12-18T00:17:01;-4.13;83.40
69225;DHT22;56333;51.306;17.056;2022-12-18T00:18:30;-4.11;83.18
69225;DHT22;56333;51.306;17.056;2022-12-18T00:19:59;-4.10;83.00
69225;DHT22;56333;51.306;17.056;2022-12-18T00:21:28;-4.12;83.03
69225;DHT22;56333;51.306;17.056;2022-12-18T00:22:58;-4.16;82.90
69225;DHT22;56333;51.306;17.056;2022-12-18T00:24:26;-4.19;83.15
69225;DHT22;56333;51.306;17.056;2022-12-18T00:25:58;-4.20;83.68
69225;DHT22;56333;51.306;17.056;2022-12-18T00:27:27;-4.18;83.40
69225;DHT22;56333;51.306;17.056;2022-12-18T00:28:57;-4.14;83.03
69225;DHT22;56333;51.306;17.056;2022-12-18T00:30:28;-4.16;83.10
69225;DHT22;56333;51.306;17.056;2022-12-18T00:31:57;-4.18;83.05
69225;DHT22;56333;51.306;17.056;2022-12-18T00:33:25;-4.15;83.35
69225;DHT22;56333;51.306;17.056;2022-12-18T00:34:54;-4.16;83.85
69225;DHT22;56333;51.306;17.056;2022-12-18T00:36:24;-4.13;83.80
69225;DHT22;56333;51.306;17.056;2022-12-18T00:37:54;-4.11;83.55
69225;DHT22;56333;51.306;17.056;2022-12-18T00:39:22;-4.09;83.30
69225;DHT22;56333;51.306;17.056;2022-12-18T00:40:51;-4.10;83.38
69225;DHT22;56333;51.306;17.056;2022-12-18T00:42:19;-4.09;83.47
69225;DHT22;56333;51.306;17.056;2022-12-18T00:44:06;-4.12;83.65
69225;DHT22;56333;51.306;17.056;2022-12-18T00:45:37;-4.14;83.63
69225;DHT22;56333;51.306;17.056;2022-12-18T00:47:06;-4.16;83.72
69225;DHT22;56333;51.306;17.056;2022-12-18T00:48:34;-4.15;84.05
69225;DHT22;56333;51.306;17.056;2022-12-18T00:50:03;-4.14;83.93
69225;DHT22;56333;51.306;17.056;2022-12-18T00:51:34;-4.17;84.18
69225;DHT22;56333;51.306;17.056;2022-12-18T00:53:02;-4.17;84.22
69225;DHT22;56333;51.306;17.056;2022-12-18T00:54:31;-4.18;84.05
69225;DHT22;56333;51.306;17.056;2022-12-18T00:55:59;-4.17;84.03
69225;DHT22;56333;51.306;17.056;2022-12-18T00:57:28;-4.18;84.35
69225;DHT22;56333;51.306;17.056;2022-12-18T00:58:57;-4.18;83.97
69225;DHT22;56333;51.306;17.056;2022-12-18T01:00:25;-4.16;83.93
69225;DHT22;56333;51.306;17.056;2022-12-18T01:01:54;-4.14;84.13
69225;DHT22;56333;51.306;17.056;2022-12-18T01:03:22;-4.13;84.22
69225;DHT22;56333;51.306;17.056;2022-12-18T01:04:51;-4.07;83.97
69225;DHT22;56333;51.306;17.056;2022-12-18T01:06:20;-4.05;84.00
69225;DHT22;56333;51.306;17.056;2022-12-18T01:07:49;-4.05;83.75
69225;DHT22;56333;51.306;17.056;2022-12-18T01:09:17;-4.02;83.75
69225;DHT22;56333;51.306;17.056;2022-12-18T01:10:46;-3.98;83.70
69225;DHT22;56333;51.306;17.056;2022-12-18T01:12:14;-3.97;83.82
69225;DHT22;56333;51.306;17.056;2022-12-18T01:13:43;-4.01;84.05
69225;DHT22;56333;51.306;17.056;2022-12-18T01:15:13;-4.03;84.18
69225;DHT22;56333;51.306;17.056;2022-12-18T01:16:43;-4.05;84.28
69225;DHT22;56333;51.306;17.056;2022-12-18T01:18:12;-4.05;84.30
69225;DHT22;56333;51.306;17.056;2022-12-18T01:19:40;-4.06;84.25
69225;DHT22;56333;51.306;17.056;2022-12-18T01:21:11;-4.06;84.32
69225;DHT22;56333;51.306;17.056;2022-12-18T01:22:40;-4.05;84.22
69225;DHT22;56333;51.306;17.056;2022-12-18T01:24:11;-4.00;83.90
69225;DHT22;56333;51.306;17.056;2022-12-18T01:25:40;-4.05;84.05
69225;DHT22;56333;51.306;17.056;2022-12-18T01:27:08;-4.03;83.88
69225;DHT22;56333;51.306;17.056;2022-12-18T01:28:37;-3.99;83.57
69225;DHT22;56333;51.306;17.056;2022-12-18T01:30:08;-4.01;83.93
69225;DHT22;56333;51.306;17.056;2022-12-18T01:31:38;-3.98;83.95
69225;DHT22;56333;51.306;17.056;2022-12-18T01:33:06;-3.95;84.05
69225;DHT22;56333;51.306;17.056;2022-12-18T01:34:36;-3.92;84.15
69225;DHT22;56333;51.306;17.056;2022-12-18T01:36:06;-3.89;84.25
69225;DHT22;56333;51.306;17.056;2022-12-18T01:37:36;-3.84;84.13
69225;DHT22;56333;51.306;17.056;2022-12-18T01:39:06;-3.80;84.05
69225;DHT22;56333;51.306;17.056;2022-12-18T01:40:39;-3.76;83.85
69225;DHT22;56333;51.306;17.056;2022-12-18T01:42:12;-3.78;83.78
69225;DHT22;56333;51.306;17.056;2022-12-18T01:43:48;-3.78;84.00
69225;DHT22;56333;51.306;17.056;2022-12-18T01:45:28;-3.73;83.82
69225;DHT22;56333;51.306;17.056;2022-12-18T01:46:58;-3.75;84.15
69225;DHT22;56333;51.306;17.056;2022-12-18T01:48:27;-3.75;83.97
69225;DHT22;56333;51.306;17.056;2022-12-18T01:49:56;-3.74;83.88
69225;DHT22;56333;51.306;17.056;2022-12-18T01:51:29;-3.74;84.10
69225;DHT22;56333;51.306;17.056;2022-12-18T01:53:00;-3.73;84.30
69225;DHT22;56333;51.306;17.056;2022-12-18T01:54:32;-3.76;84.25
69225;DHT22;56333;51.306;17.056;2022-12-18T01:56:01;-3.79;84.82
69225;DHT22;56333;51.306;17.056;2022-12-18T01:57:30;-3.74;84.75
69225;DHT22;56333;51.306;17.056;2022-12-18T01:59:02;-3.76;84.68
69225;DHT22;56333;51.306;17.056;2022-12-18T02:00:34;-3.75;84.63
69225;DHT22;56333;51.306;17.056;2022-12-18T02:02:03;-3.72;84.68
69225;DHT22;56333;51.306;17.056;2022-12-18T02:03:32;-3.64;84.22
69225;DHT22;56333;51.306;17.056;2022-12-18T02:05:01;-3.61;84.03
69225;DHT22;56333;51.306;17.056;2022-12-18T02:06:34;-3.57;83.95
69225;DHT22;56333;51.306;17.056;2022-12-18T02:08:12;-3.57;84.05
69225;DHT22;56333;51.306;17.056;2022-12-18T02:09:48;-3.57;84.07
69225;DHT22;56333;51.306;17.056;2022-12-18T02:11:30;-3.57;84.20
69225;DHT22;56333;51.306;17.056;2022-12-18T02:13:12;-3.62;84.43
69225;DHT22;56333;51.306;17.056;2022-12-18T02:14:52;-3.59;84.43
69225;DHT22;56333;51.306;17.056;2022-12-18T02:16:35;-3.56;83.95
69225;DHT22;56333;51.306;17.056;2022-12-18T02:18:15;-3.62;84.45
69225;DHT22;56333;51.306;17.056;2022-12-18T02:19:58;-3.59;84.20
69225;DHT22;56333;51.306;17.056;2022-12-18T02:21:40;-3.59;83.70
69225;DHT22;56333;51.306;17.056;2022-12-18T02:23:28;-3.67;84.47
69225;DHT22;56333;51.306;17.056;2022-12-18T02:25:20;-3.71;84.70
69225;DHT22;56333;51.306;17.056;2022-12-18T02:27:02;-3.71;84.97
69225;DHT22;56333;51.306;17.056;2022-12-18T02:28:33;-3.71;84.93
69225;DHT22;56333;51.306;17.056;2022-12-18T02:30:09;-3.68;84.90
69225;DHT22;56333;51.306;17.056;2022-12-18T02:31:40;-3.64;84.47
69225;DHT22;56333;51.306;17.056;2022-12-18T02:33:15;-3.62;84.40
69225;DHT22;56333;51.306;17.056;2022-12-18T02:34:46;-3.57;84.40
69225;DHT22;56333;51.306;17.056;2022-12-18T02:36:15;-3.51;84.28
69225;DHT22;56333;51.306;17.056;2022-12-18T02:37:46;-3.48;84.10
69225;DHT22;56333;51.306;17.056;2022-12-18T02:39:18;-3.44;83.97
69225;DHT22;56333;51.306;17.056;2022-12-18T02:40:54;-3.46;83.80
69225;DHT22;56333;51.306;17.056;2022-12-18T02:42:24;-3.50;84.00
69225;DHT22;56333;51.306;17.056;2022-12-18T02:43:57;-3.51;84.38
69225;DHT22;56333;51.306;17.056;2022-12-18T02:45:31;-3.51;84.45
69225;DHT22;56333;51.306;17.056;2022-12-18T02:47:00;-3.48;84.13
69225;DHT22;56333;51.306;17.056;2022-12-18T02:48:32;-3.49;83.88
69225;DHT22;56333;51.306;17.056;2022-12-18T02:50:07;-3.52;83.82
69225;DHT22;56333;51.306;17.056;2022-12-18T02:51:47;-3.56;84.13
69225;DHT22;56333;51.306;17.056;2022-12-18T02:53:23;-3.57;84.43
69225;DHT22;56333;51.306;17.056;2022-12-18T02:55:00;-3.56;84.53
69225;DHT22;56333;51.306;17.056;2022-12-18T02:56:45;-3.60;84.53
69225;DHT22;56333;51.306;17.056;2022-12-18T02:58:20;-3.59;84.43
69225;DHT22;56333;51.306;17.056;2022-12-18T03:00:05;-3.53;84.20
69225;DHT22;56333;51.306;17.056;2022-12-18T03:01:39;-3.50;84.07
69225;DHT22;56333;51.306;17.056;2022-12-18T03:03:22;-3.46;83.93
69225;DHT22;56333;51.306;17.056;2022-12-18T03:04:59;-3.42;83.75
69225;DHT22;56333;51.306;17.056;2022-12-18T03:06:35;-3.49;83.88
69225;DHT22;56333;51.306;17.056;2022-12-18T03:08:12;-3.44;83.82
69225;DHT22;56333;51.306;17.056;2022-12-18T03:09:46;-3.49;83.90
69225;DHT22;56333;51.306;17.056;2022-12-18T03:11:18;-3.52;84.30
69225;DHT22;56333;51.306;17.056;2022-12-18T03:13:08;-3.48;84.03
69225;DHT22;56333;51.306;17.056;2022-12-18T03:14:41;-3.50;83.95
69225;DHT22;56333;51.306;17.056;2022-12-18T03:16:15;-3.51;84.07
69225;DHT22;56333;51.306;17.056;2022-12-18T03:17:59;-3.47;83.88
69225;DHT22;56333;51.306;17.056;2022-12-18T03:19:33;-3.50;83.82
69225;DHT22;56333;51.306;17.056;2022-12-18T03:21:01;-3.53;84.15
69225;DHT22;56333;51.306;17.056;2022-12-18T03:22:35;-3.56;84.18
69225;DHT22;56333;51.306;17.056;2022-12-18T03:24:09;-3.59;84.30
69225;DHT22;56333;51.306;17.056;2022-12-18T03:25:39;-3.61;84.55
69225;DHT22;56333;51.306;17.056;2022-12-18T03:27:13;-3.60;84.35
69225;DHT22;56333;51.306;17.056;2022-12-18T03:28:47;-3.60;84.25
69225;DHT22;56333;51.306;17.056;2022-12-18T03:30:22;-3.59;84.50
69225;DHT22;56333;51.306;17.056;2022-12-18T03:31:55;-3.55;84.57
69225;DHT22;56333;51.306;17.056;2022-12-18T03:33:31;-3.47;84.38
69225;DHT22;56333;51.306;17.056;2022-12-18T03:35:08;-3.45;84.15
69225;DHT22;56333;51.306;17.056;2022-12-18T03:36:40;-3.40;84.13
69225;DHT22;56333;51.306;17.056;2022-12-18T03:38:09;-3.40;84.10
69225;DHT22;56333;51.306;17.056;2022-12-18T03:39:42;-3.38;84.10
69225;DHT22;56333;51.306;17.056;2022-12-18T03:41:17;-3.36;83.80
69225;DHT22;56333;51.306;17.056;2022-12-18T03:43:51;-3.41;83.60
69225;DHT22;56333;51.306;17.056;2022-12-18T03:45:30;-3.43;83.82
69225;DHT22;56333;51.306;17.056;2022-12-18T03:47:05;-3.41;84.05
69225;DHT22;56333;51.306;17.056;2022-12-18T03:48:41;-3.43;84.00
69225;DHT22;56333;51.306;17.056;2022-12-18T03:50:16;-3.45;83.72
69225;DHT22;56333;51.306;17.056;2022-12-18T03:51:52;-3.47;83.53
69225;DHT22;56333;51.306;17.056;2022-12-18T03:53:35;-3.46;83.40
69225;DHT22;56333;51.306;17.056;2022-12-18T03:55:09;-3.51;83.82
69225;DHT22;56333;51.306;17.056;2022-12-18T03:56:42;-3.51;83.78
69225;DHT22;56333;51.306;17.056;2022-12-18T03:58:15;-3.50;84.03
69225;DHT22;56333;51.306;17.056;2022-12-18T04:00:00;-3.46;83.90
69225;DHT22;56333;51.306;17.056;2022-12-18T04:01:49;-3.40;83.70
69225;DHT22;56333;51.306;17.056;2022-12-18T04:03:21;-3.42;83.85
69225;DHT22;56333;51.306;17.056;2022-12-18T04:04:55;-3.39;83.68
69225;DHT22;56333;51.306;17.056;2022-12-18T04:06:29;-3.39;83.60
69225;DHT22;56333;51.306;17.056;2022-12-18T04:07:58;-3.38;83.57
69225;DHT22;56333;51.306;17.056;2022-12-18T04:09:28;-3.36;83.47
69225;DHT22;56333;51.306;17.056;2022-12-18T04:10:58;-3.36;83.47
69225;DHT22;56333;51.306;17.056;2022-12-18T04:12:29;-3.38;83.35
69225;DHT22;56333;51.306;17.056;2022-12-18T04:13:58;-3.43;83.38
69225;DHT22;56333;51.306;17.056;2022-12-18T04:15:28;-3.41;83.57
69225;DHT22;56333;51.306;17.056;2022-12-18T04:16:58;-3.43;83.45
69225;DHT22;56333;51.306;17.056;2022-12-18T04:18:28;-3.48;83.57
69225;DHT22;56333;51.306;17.056;2022-12-18T04:19:57;-3.48;83.75
69225;DHT22;56333;51.306;17.056;2022-12-18T04:21:27;-3.51;84.10
69225;DHT22;56333;51.306;17.056;2022-12-18T04:22:56;-3.49;83.93
69225;DHT22;56333;51.306;17.056;2022-12-18T04:24:24;-3.48;83.85
69225;DHT22;56333;51.306;17.056;2022-12-18T04:26:02;-3.48;84.15
69225;DHT22;56333;51.306;17.056;2022-12-18T04:27:39;-3.44;83.93
69225;DHT22;56333;51.306;17.056;2022-12-18T04:29:07;-3.44;83.75
69225;DHT22;56333;51.306;17.056;2022-12-18T04:30:36;-3.48;83.70
69225;DHT22;56333;51.306;17.056;2022-12-18T04:32:05;-3.43;83.68
69225;DHT22;56333;51.306;17.056;2022-12-18T04:33:34;-3.42;83.75
69225;DHT22;56333;51.306;17.056;2022-12-18T04:35:04;-3.39;83.72
69225;DHT22;56333;51.306;17.056;2022-12-18T04:36:36;-3.40;83.78
69225;DHT22;56333;51.306;17.056;2022-12-18T04:38:04;-3.43;83.97
69225;DHT22;56333;51.306;17.056;2022-12-18T04:39:33;-3.49;83.80
69225;DHT22;56333;51.306;17.056;2022-12-18T04:41:05;-3.46;83.80
69225;DHT22;56333;51.306;17.056;2022-12-18T04:42:33;-3.47;84.10
69225;DHT22;56333;51.306;17.056;2022-12-18T04:44:02;-3.44;84.05
69225;DHT22;56333;51.306;17.056;2022-12-18T04:45:31;-3.47;84.18
69225;DHT22;56333;51.306;17.056;2022-12-18T04:46:59;-3.45;84.25
69225;DHT22;56333;51.306;17.056;2022-12-18T04:48:28;-3.41;83.85
69225;DHT22;56333;51.306;17.056;2022-12-18T04:49:56;-3.38;83.80
69225;DHT22;56333;51.306;17.056;2022-12-18T04:51:25;-3.38;83.78
69225;DHT22;56333;51.306;17.056;2022-12-18T04:52:53;-3.32;83.60
69225;DHT22;56333;51.306;17.056;2022-12-18T04:54:22;-3.33;83.53
69225;DHT22;56333;51.306;17.056;2022-12-18T04:55:50;-3.33;83.63
69225;DHT22;56333;51.306;17.056;2022-12-18T04:57:28;-3.34;83.55
69225;DHT22;56333;51.306;17.056;2022-12-18T04:58:57;-3.33;83.40
69225;DHT22;56333;51.306;17.056;2022-12-18T05:00:25;-3.37;83.40
69225;DHT22;56333;51.306;17.056;2022-12-18T05:01:54;-3.34;83.35
69225;DHT22;56333;51.306;17.056;2022-12-18T05:03:22;-3.41;83.47
69225;DHT22;56333;51.306;17.056;2022-12-18T05:04:51;-3.43;83.35
69225;DHT22;56333;51.306;17.056;2022-12-18T05:06:19;-3.43;83.57
69225;DHT22;56333;51.306;17.056;2022-12-18T05:07:48;-3.45;83.53
69225;DHT22;56333;51.306;17.056;2022-12-18T05:09:16;-3.44;83.57
69225;DHT22;56333;51.306;17.056;2022-12-18T05:10:45;-3.44;83.43
69225;DHT22;56333;51.306;17.056;2022-12-18T05:12:13;-3.43;83.68
69225;DHT22;56333;51.306;17.056;2022-12-18T05:13:42;-3.44;83.72
69225;DHT22;56333;51.306;17.056;2022-12-18T05:15:11;-3.39;83.50
69225;DHT22;56333;51.306;17.056;2022-12-18T05:16:40;-3.39;83.22
69225;DHT22;56333;51.306;17.056;2022-12-18T05:18:08;-3.40;83.47
69225;DHT22;56333;51.306;17.056;2022-12-18T05:19:37;-3.38;83.68
69225;DHT22;56333;51.306;17.056;2022-12-18T05:21:06;-3.37;83.72
69225;DHT22;56333;51.306;17.056;2022-12-18T05:22:35;-3.36;83.53
69225;DHT22;56333;51.306;17.056;2022-12-18T05:24:04;-3.37;83.30
69225;DHT22;56333;51.306;17.056;2022-12-18T05:25:34;-3.40;83.43
69225;DHT22;56333;51.306;17.056;2022-12-18T05:27:02;-3.38;83.40
69225;DHT22;56333;51.306;17.056;2022-12-18T05:28:32;-3.36;83.45
69225;DHT22;56333;51.306;17.056;2022-12-18T05:30:02;-3.42;83.47
69225;DHT22;56333;51.306;17.056;2022-12-18T05:31:32;-3.46;83.45
69225;DHT22;56333;51.306;17.056;2022-12-18T05:33:01;-3.50;83.35
69225;DHT22;56333;51.306;17.056;2022-12-18T05:34:29;-3.47;83.30
69225;DHT22;56333;51.306;17.056;2022-12-18T05:35:59;-3.47;83.53
69225;DHT22;56333;51.306;17.056;2022-12-18T05:37:29;-3.44;83.53
69225;DHT22;56333;51.306;17.056;2022-12-18T05:38:58;-3.39;83.43
69225;DHT22;56333;51.306;17.056;2022-12-18T05:40:26;-3.38;83.50
69225;DHT22;56333;51.306;17.056;2022-12-18T05:41:55;-3.42;83.25
69225;DHT22;56333;51.306;17.056;2022-12-18T05:43:25;-3.51;83.30
69225;DHT22;56333;51.306;17.056;2022-12-18T05:44:55;-3.47;83.32
69225;DHT22;56333;51.306;17.056;2022-12-18T05:46:21;-3.50;83.80
69225;DHT22;56333;51.306;17.056;2022-12-18T05:47:50;-3.52;83.38
69225;DHT22;56333;51.306;17.056;2022-12-18T05:49:19;-3.58;83.13
69225;DHT22;56333;51.306;17.056;2022-12-18T05:50:48;-3.68;83.55
69225;DHT22;56333;51.306;17.056;2022-12-18T05:52:17;-3.67;83.60
69225;DHT22;56333;51.306;17.056;2022-12-18T05:53:46;-3.71;83.70
69225;DHT22;56333;51.306;17.056;2022-12-18T05:55:15;-3.72;83.70
69225;DHT22;56333;51.306;17.056;2022-12-18T05:56:43;-3.75;84.30
69225;DHT22;56333;51.306;17.056;2022-12-18T05:58:12;-3.70;84.25
69225;DHT22;56333;51.306;17.056;2022-12-18T05:59:41;-3.63;84.05
69225;DHT22;56333;51.306;17.056;2022-12-18T06:01:12;-3.61;84.15
69225;DHT22;56333;51.306;17.056;2022-12-18T06:02:43;-3.56;84.00
69225;DHT22;56333;51.306;17.056;2022-12-18T06:04:14;-3.54;83.85
69225;DHT22;56333;51.306;17.056;2022-12-18T06:05:44;-3.52;84.03
69225;DHT22;56333;51.306;17.056;2022-12-18T06:07:12;-3.51;84.18
69225;DHT22;56333;51.306;17.056;2022-12-18T06:08:41;-3.48;84.00
69225;DHT22;56333;51.306;17.056;2022-12-18T06:10:10;-3.45;83.95
69225;DHT22;56333;51.306;17.056;2022-12-18T06:11:39;-3.45;83.75
69225;DHT22;56333;51.306;17.056;2022-12-18T06:13:07;-3.48;83.80
69225;DHT22;56333;51.306;17.056;2022-12-18T06:14:36;-3.47;83.88
69225;DHT22;56333;51.306;17.056;2022-12-18T06:16:06;-3.49;83.95
69225;DHT22;56333;51.306;17.056;2022-12-18T06:17:35;-3.49;83.70
69225;DHT22;56333;51.306;17.056;2022-12-18T06:19:05;-3.52;83.88
69225;DHT22;56333;51.306;17.056;2022-12-18T06:20:37;-3.60;83.45
69225;DHT22;56333;51.306;17.056;2022-12-18T06:22:07;-3.60;83.35
69225;DHT22;56333;51.306;17.056;2022-12-18T06:23:35;-3.57;83.43
69225;DHT22;56333;51.306;17.056;2022-12-18T06:25:05;-3.60;83.28
69225;DHT22;56333;51.306;17.056;2022-12-18T06:26:36;-3.58;83.40
69225;DHT22;56333;51.306;17.056;2022-12-18T06:28:05;-3.54;83.53
69225;DHT22;56333;51.306;17.056;2022-12-18T06:29:33;-3.59;83.35
69225;DHT22;56333;51.306;17.056;2022-12-18T06:31:03;-3.62;83.30
69225;DHT22;56333;51.306;17.056;2022-12-18T06:32:32;-3.62;83.15
69225;DHT22;56333;51.306;17.056;2022-12-18T06:34:02;-3.61;83.20
69225;DHT22;56333;51.306;17.056;2022-12-18T06:35:32;-3.63;83.32
69225;DHT22;56333;51.306;17.056;2022-12-18T06:37:01;-3.69;83.40
69225;DHT22;56333;51.306;17.056;2022-12-18T06:38:30;-3.65;83.30
69225;DHT22;56333;51.306;17.056;2022-12-18T06:40:00;-3.63;83.38
69225;DHT22;56333;51.306;17.056;2022-12-18T06:41:29;-3.64;83.15
69225;DHT22;56333;51.306;17.056;2022-12-18T06:42:57;-3.73;83.13
69225;DHT22;56333;51.306;17.056;2022-12-18T06:44:26;-3.78;83.13
69225;DHT22;56333;51.306;17.056;2022-12-18T06:46:00;-3.81;83.40
69225;DHT22;56333;51.306;17.056;2022-12-18T06:47:29;-3.72;83.53
69225;DHT22;56333;51.306;17.056;2022-12-18T06:48:58;-3.67;83.55
69225;DHT22;56333;51.306;17.056;2022-12-18T06:50:26;-3.70;83.43
69225;DHT22;56333;51.306;17.056;2022-12-18T06:51:55;-3.66;83.32
69225;DHT22;56333;51.306;17.056;2022-12-18T06:53:23;-3.62;83.40
69225;DHT22;56333;51.306;17.056;2022-12-18T06:54:52;-3.59;83.47
69225;DHT22;56333;51.306;17.056;2022-12-18T06:56:20;-3.63;83.38
69225;DHT22;56333;51.306;17.056;2022-12-18T06:57:49;-3.64;83.40
69225;DHT22;56333;51.306;17.056;2022-12-18T06:59:18;-3.64;83.40
69225;DHT22;56333;51.306;17.056;2022-12-18T07:00:47;-3.60;83.45
69225;DHT22;56333;51.306;17.056;2022-12-18T07:02:15;-3.60;83.43
69225;DHT22;56333;51.306;17.056;2022-12-18T07:03:44;-3.60;83.68
69225;DHT22;56333;51.306;17.056;2022-12-18T07:05:16;-3.61;83.65
69225;DHT22;56333;51.306;17.056;2022-12-18T07:06:45;-3.63;83.47
69225;DHT22;56333;51.306;17.056;2022-12-18T07:08:13;-3.63;83.30
69225;DHT22;56333;51.306;17.056;2022-12-18T07:09:42;-3.65;83.28
69225;DHT22;56333;51.306;17.056;2022-12-18T07:11:10;-3.63;83.22
69225;DHT22;56333;51.306;17.056;2022-12-18T07:12:40;-3.57;83.35
69225;DHT22;56333;51.306;17.056;2022-12-18T07:14:08;-3.58;83.30
69225;DHT22;56333;51.306;17.056;2022-12-18T07:15:37;-3.53;83.18
69225;DHT22;56333;51.306;17.056;2022-12-18T07:17:05;-3.48;83.25
69225;DHT22;56333;51.306;17.056;2022-12-18T07:18:34;-3.47;83.25
69225;DHT22;56333;51.306;17.056;2022-12-18T07:20:02;-3.46;83.07
69225;DHT22;56333;51.306;17.056;2022-12-18T07:21:33;-3.46;82.88
69225;DHT22;56333;51.306;17.056;2022-12-18T07:23:02;-3.44;82.78
69225;DHT22;56333;51.306;17.056;2022-12-18T07:24:31;-3.47;82.65
69225;DHT22;56333;51.306;17.056;2022-12-18T07:26:03;-3.61;82.85
69225;DHT22;56333;51.306;17.056;2022-12-18T07:27:34;-3.65;82.95
69225;DHT22;56333;51.306;17.056;2022-12-18T07:29:02;-3.61;83.15
69225;DHT22;56333;51.306;17.056;2022-12-18T07:30:31;-3.59;83.47
69225;DHT22;56333;51.306;17.056;2022-12-18T07:31:58;-3.57;83.32
69225;DHT22;56333;51.306;17.056;2022-12-18T07:33:27;-3.59;83.07
69225;DHT22;56333;51.306;17.056;2022-12-18T07:34:56;-3.67;82.97
69225;DHT22;56333;51.306;17.056;2022-12-18T07:36:24;-3.74;83.32
69225;DHT22;56333;51.306;17.056;2022-12-18T07:37:53;-3.71;83.22
69225;DHT22;56333;51.306;17.056;2022-12-18T07:39:21;-3.67;83.35
69225;DHT22;56333;51.306;17.056;2022-12-18T07:40:50;-3.61;83.40
69225;DHT22;56333;51.306;17.056;2022-12-18T07:42:18;-3.63;83.28
69225;DHT22;56333;51.306;17.056;2022-12-18T07:43:55;-3.63;83.03
69225;DHT22;56333;51.306;17.056;2022-12-18T07:45:24;-3.73;82.90
69225;DHT22;56333;51.306;17.056;2022-12-18T07:46:52;-3.78;82.90
69225;DHT22;56333;51.306;17.056;2022-12-18T07:48:22;-3.86;82.95
69225;DHT22;56333;51.306;17.056;2022-12-18T07:49:50;-3.86;82.85
69225;DHT22;56333;51.306;17.056;2022-12-18T07:51:19;-3.99;83.30
69225;DHT22;56333;51.306;17.056;2022-12-18T07:52:47;-3.96;83.20
69225;DHT22;56333;51.306;17.056;2022-12-18T07:54:16;-3.98;83.53
69225;DHT22;56333;51.306;17.056;2022-12-18T07:55:44;-3.91;83.70
69225;DHT22;56333;51.306;17.056;2022-12-18T07:57:13;-3.82;83.65
69225;DHT22;56333;51.306;17.056;2022-12-18T07:58:42;-3.78;83.50
69225;DHT22;56333;51.306;17.056;2022-12-18T08:00:13;-3.78;83.20
69225;DHT22;56333;51.306;17.056;2022-12-18T08:01:43;-3.81;82.75
69225;DHT22;56333;51.306;17.056;2022-12-18T08:03:13;-3.85;82.47
69225;DHT22;56333;51.306;17.056;2022-12-18T08:04:41;-3.90;82.50
69225;DHT22;56333;51.306;17.056;2022-12-18T08:06:10;-3.86;82.80
69225;DHT22;56333;51.306;17.056;2022-12-18T08:07:39;-3.86;83.03
69225;DHT22;56333;51.306;17.056;2022-12-18T08:09:09;-3.84;83.03
69225;DHT22;56333;51.306;17.056;2022-12-18T08:10:38;-3.84;83.35
69225;DHT22;56333;51.306;17.056;2022-12-18T08:12:07;-3.82;83.30
69225;DHT22;56333;51.306;17.056;2022-12-18T08:13:35;-3.81;83.15
69225;DHT22;56333;51.306;17.056;2022-12-18T08:15:04;-3.84;83.18
69225;DHT22;56333;51.306;17.056;2022-12-18T08:16:34;-3.81;83.10
69225;DHT22;56333;51.306;17.056;2022-12-18T08:18:02;-3.80;83.13
69225;DHT22;56333;51.306;17.056;2022-12-18T08:19:31;-3.78;82.95
69225;DHT22;56333;51.306;17.056;2022-12-18T08:21:10;-3.73;82.90
69225;DHT22;56333;51.306;17.056;2022-12-18T08:22:41;-3.73;82.53
69225;DHT22;56333;51.306;17.056;2022-12-18T08:24:10;-3.72;82.20
69225;DHT22;56333;51.306;17.056;2022-12-18T08:25:38;-3.77;82.07
69225;DHT22;56333;51.306;17.056;2022-12-18T08:27:06;-3.80;82.22
69225;DHT22;56333;51.306;17.056;2022-12-18T08:28:35;-3.73;82.35
69225;DHT22;56333;51.306;17.056;2022-12-18T08:30:05;-3.84;82.25
69225;DHT22;56333;51.306;17.056;2022-12-18T08:31:37;-3.91;82.22
69225;DHT22;56333;51.306;17.056;2022-12-18T08:33:06;-3.99;82.45
69225;DHT22;56333;51.306;17.056;2022-12-18T08:34:34;-3.94;82.55
69225;DHT22;56333;51.306;17.056;2022-12-18T08:36:03;-4.00;82.47
69225;DHT22;56333;51.306;17.056;2022-12-18T08:37:33;-4.08;82.78
69225;DHT22;56333;51.306;17.056;2022-12-18T08:39:06;-4.03;82.80
69225;DHT22;56333;51.306;17.056;2022-12-18T08:40:35;-4.01;82.78
69225;DHT22;56333;51.306;17.056;2022-12-18T08:42:03;-3.96;82.80
69225;DHT22;56333;51.306;17.056;2022-12-18T08:43:49;-3.96;82.63
69225;DHT22;56333;51.306;17.056;2022-12-18T08:45:36;-3.97;82.45
69225;DHT22;56333;51.306;17.056;2022-12-18T08:47:04;-3.91;82.30
69225;DHT22;56333;51.306;17.056;2022-12-18T08:48:33;-4.06;82.38
69225;DHT22;56333;51.306;17.056;2022-12-18T08:50:02;-4.01;82.45
69225;DHT22;56333;51.306;17.056;2022-12-18T08:51:32;-4.15;83.03
69225;DHT22;56333;51.306;17.056;2022-12-18T08:53:02;-4.07;82.70
69225;DHT22;56333;51.306;17.056;2022-12-18T08:54:30;-4.09;82.70
69225;DHT22;56333;51.306;17.056;2022-12-18T08:55:59;-4.07;82.85
69225;DHT22;56333;51.306;17.056;2022-12-18T08:57:28;-4.08;82.95
69225;DHT22;56333;51.306;17.056;2022-12-18T08:58:56;-4.01;83.05
69225;DHT22;56333;51.306;17.056;2022-12-18T09:00:25;-3.99;83.22
69225;DHT22;56333;51.306;17.056;2022-12-18T09:01:54;-3.95;83.13
69225;DHT22;56333;51.306;17.056;2022-12-18T09:03:22;-3.94;83.05
69225;DHT22;56333;51.306;17.056;2022-12-18T09:04:51;-3.92;82.85
69225;DHT22;56333;51.306;17.056;2022-12-18T09:06:20;-3.88;83.10
69225;DHT22;56333;51.306;17.056;2022-12-18T09:07:50;-3.82;82.80
69225;DHT22;56333;51.306;17.056;2022-12-18T09:09:18;-3.83;82.75
69225;DHT22;56333;51.306;17.056;2022-12-18T09:10:48;-3.92;82.68
69225;DHT22;56333;51.306;17.056;2022-12-18T09:12:17;-3.83;82.72
69225;DHT22;56333;51.306;17.056;2022-12-18T09:13:45;-3.76;82.75
69225;DHT22;56333;51.306;17.056;2022-12-18T09:15:14;-3.73;82.68
69225;DHT22;56333;51.306;17.056;2022-12-18T09:16:43;-3.65;82.85
69225;DHT22;56333;51.306;17.056;2022-12-18T09:18:12;-3.63;82.57
69225;DHT22;56333;51.306;17.056;2022-12-18T09:19:46;-3.62;82.38
69225;DHT22;56333;51.306;17.056;2022-12-18T09:21:15;-3.62;82.25
69225;DHT22;56333;51.306;17.056;2022-12-18T09:22:45;-3.77;82.13
69225;DHT22;56333;51.306;17.056;2022-12-18T09:24:14;-3.80;82.18
69225;DHT22;56333;51.306;17.056;2022-12-18T09:25:46;-3.84;82.40